首页
METAR-TAF:

METAR-TAF

机场 :

Hunter Army Airfield / Fort Stewart

薩凡納, 喬治亞, 美国

纬度: 32-01N, 经度: 081-09W, 海拔: 13米

当前天气观测

该预报发布于1小时和5分钟前的17:56 UTC
风速8节,风向南转西南
温度 31°C
湿度 46%
气压 1016 hPa
能見度: 16.1公里
天空无云

METAR: KSVN 281756Z AUTO 20008KT 10SM CLR 31/18 A3000 RMK AO2 SLP162 T03070181 10307 20187 58012 $

时间: 15:01 (19:01 UTC)

预报

该预报发布于7小时和1分钟前的12:00 UTC
预报有效从28日的 12点(UTC)到 29日的 18点(UTC)
风速6节,风向多变
能见度10公里或以上
少量云层高于3000英尺

TAF: KSVN 281200Z 2812/2918 VRB06KT 9999 FEW030 QNH3000INS TX31/2819Z TN18/2812Z

超过4000个机场的气象观测和天气预报(METAR&TAF报告)。

可查询的气象台以黄色和红色小点在地图上表示。

将鼠标移到小点上方,可查看气象台名称。

然后点击查看天气观测和预报。

如需切换地图:点击带黑十字的绿色按钮放大地图;点击带横线的绿色按钮缩小地图;或者点击绿色箭头查看邻近地区的地图。


METAR-TAF: